Time;durP1;ratioP1;P1;durP2;ratioP2;P2;SDS_P1;SDS_P2;PMS_P1;PMS_P2;Temp;Humidity;BMP_temperature;BMP_pressure;BME280_temperature;BME280_humidity;BME280_pressure;Samples;Min_cycle;Max_cycle;Signal;HPM_P1;HPM_P2
2022/05/23 04:02:38;;;;;;;3.03;2.85;;;11.90;99.90;;;;;;4931047;29;20632;-69
2022/05/23 04:05:05;;;;;;;2.45;2.35;;;12.00;99.90;;;;;;4933134;29;20258;-69
2022/05/23 04:07:34;;;;;;;2.95;2.88;;;12.00;99.90;;;;;;4934375;29;20297;-69
2022/05/23 04:10:01;;;;;;;2.83;2.67;;;12.10;99.90;;;;;;4933589;29;20234;-68
2022/05/23 04:12:28;;;;;;;3.15;2.95;;;12.30;99.90;;;;;;4934131;29;20229;-68
2022/05/23 04:14:54;;;;;;;2.83;2.70;;;12.30;99.90;;;;;;4934210;29;20206;-69
2022/05/23 04:17:22;;;;;;;3.73;2.90;;;12.40;99.90;;;;;;4934102;29;20461;-69
2022/05/23 04:19:50;;;;;;;2.40;2.20;;;12.60;99.90;;;;;;4933459;29;20465;-68
2022/05/23 04:22:17;;;;;;;2.17;2.10;;;12.70;99.90;;;;;;4928192;29;20536;-68
2022/05/23 04:24:44;;;;;;;2.30;2.10;;;12.80;99.90;;;;;;4934182;29;20498;-68
2022/05/23 04:27:10;;;;;;;2.37;2.37;;;13.40;99.90;;;;;;4933748;29;20465;-68
2022/05/23 04:29:37;;;;;;;2.00;2.00;;;14.20;99.90;;;;;;4933693;29;20521;-69
2022/05/23 04:35:12;;;;;;;2.10;2.00;;;15.10;99.90;;;;;;4933222;29;20490;-68
2022/05/23 04:37:37;;;;;;;1.33;1.33;;;16.50;99.90;;;;;;4933696;29;20457;-68
2022/05/23 04:40:05;;;;;;;1.73;1.73;;;16.60;99.90;;;;;;4931782;29;20457;-68
2022/05/23 04:42:32;;;;;;;1.93;1.90;;;16.30;99.90;;;;;;4933537;29;20536;-69
2022/05/23 04:44:58;;;;;;;2.40;2.30;;;15.90;99.90;;;;;;4933570;29;20524;-68
2022/05/23 04:50:11;;;;;;;2.30;2.30;;;15.50;99.90;;;;;;4932817;29;20472;-68
2022/05/23 04:52:38;;;;;;;2.30;2.10;;;15.40;99.90;;;;;;4933134;29;20514;-69
2022/05/23 04:55:06;;;;;;;2.10;2.10;;;15.20;99.90;;;;;;4931984;29;20895;-68
2022/05/23 04:57:33;;;;;;;2.30;2.17;;;15.10;99.90;;;;;;4933265;29;20524;-69
2022/05/23 05:00:00;;;;;;;1.77;1.77;;;15.40;99.90;;;;;;4932425;29;20469;-68
2022/05/23 05:02:27;;;;;;;1.80;1.80;;;15.80;99.90;;;;;;4932831;29;20501;-69
2022/05/23 05:04:54;;;;;;;2.47;1.87;;;16.70;99.90;;;;;;4931890;29;20895;-69
2022/05/23 05:07:22;;;;;;;6.50;2.20;;;17.50;99.90;;;;;;4941842;29;20489;-69
2022/05/23 05:09:49;;;;;;;1.90;1.90;;;18.10;99.90;;;;;;4932902;29;20517;-69
2022/05/23 05:12:16;;;;;;;1.50;1.50;;;18.60;99.90;;;;;;4931907;29;20520;-69
2022/05/23 05:14:43;;;;;;;1.92;1.83;;;18.90;99.90;;;;;;4932676;29;20465;-69
2022/05/23 05:17:09;;;;;;;1.23;1.23;;;19.40;99.90;;;;;;4932348;29;20281;-69
2022/05/23 05:19:36;;;;;;;1.80;1.70;;;19.50;99.90;;;;;;4932908;29;20536;-70
2022/05/23 05:22:04;;;;;;;1.60;1.60;;;19.80;99.90;;;;;;4933286;29;20623;-69
2022/05/23 05:24:33;;;;;;;1.67;1.67;;;19.80;99.90;;;;;;4932905;29;20553;-68
2022/05/23 05:27:00;;;;;;;1.70;1.60;;;19.70;99.90;;;;;;4933089;29;20549;-67
2022/05/23 05:29:27;;;;;;;1.50;1.50;;;19.60;99.90;;;;;;4932999;29;20492;-68
2022/05/23 05:31:56;;;;;;;1.90;1.70;;;18.90;99.90;;;;;;4931741;29;20489;-68
2022/05/23 05:34:27;;;;;;;2.30;1.87;;;18.20;99.90;;;;;;4933067;29;20469;-67
2022/05/23 05:36:59;;;;;;;1.30;1.30;;;17.90;99.90;;;;;;4921856;29;20512;-68
2022/05/23 05:39:31;;;;;;;1.70;1.70;;;17.80;99.90;;;;;;4933065;29;20461;-68
2022/05/23 05:42:04;;;;;;;1.43;1.33;;;17.70;99.90;;;;;;4932545;29;20540;-68
2022/05/23 05:44:34;;;;;;;1.40;1.40;;;17.60;99.90;;;;;;4929332;29;20536;-68
2022/05/23 05:47:05;;;;;;;1.40;1.40;;;17.20;99.90;;;;;;4932547;29;20513;-67
2022/05/23 05:49:35;;;;;;;2.77;1.90;;;16.80;99.90;;;;;;4931965;29;20884;-67
2022/05/23 05:52:05;;;;;;;1.50;1.40;;;16.70;99.90;;;;;;4937757;29;20512;-68
2022/05/23 05:54:33;;;;;;;1.07;1.07;;;17.00;99.90;;;;;;4933274;29;20834;-68
2022/05/23 05:57:03;;;;;;;1.73;1.73;;;17.30;99.90;;;;;;4932949;29;20458;-67
2022/05/23 05:59:31;;;;;;;1.47;1.40;;;17.50;99.90;;;;;;4933049;29;20474;-67
2022/05/23 06:01:58;;;;;;;2.33;1.53;;;17.90;99.90;;;;;;4935783;29;20560;-67
2022/05/23 06:04:24;;;;;;;1.20;1.20;;;18.60;99.90;;;;;;4935651;28;20886;-68
2022/05/23 06:12:21;;;;;;;1.33;1.33;;;19.20;99.90;;;;;;4943010;29;20492;-68
2022/05/23 06:14:47;;;;;;;1.60;1.50;;;19.00;99.90;;;;;;4934367;29;20520;-70
2022/05/23 06:17:14;;;;;;;1.67;1.57;;;18.70;99.90;;;;;;4935002;29;20532;-68
2022/05/23 06:19:44;;;;;;;1.30;1.30;;;18.40;99.90;;;;;;4935228;29;20497;-67
2022/05/23 06:22:11;;;;;;;2.77;1.10;;;18.30;99.90;;;;;;4936165;29;20816;-68
2022/05/23 06:24:38;;;;;;;2.77;1.60;;;18.70;99.90;;;;;;4936323;29;20508;-67
2022/05/23 06:27:06;;;;;;;1.30;1.30;;;19.10;99.90;;;;;;4936587;29;20473;-68
2022/05/23 06:29:35;;;;;;;1.80;1.50;;;19.40;99.90;;;;;;4935826;29;20828;-67
2022/05/23 06:32:02;;;;;;;1.70;1.60;;;19.30;99.90;;;;;;4934796;29;20501;-68
2022/05/23 06:34:29;;;;;;;1.73;1.67;;;19.30;99.90;;;;;;4930992;29;20533;-68
2022/05/23 06:36:55;;;;;;;1.37;1.37;;;19.60;99.90;;;;;;4935636;29;20478;-68
2022/05/23 06:39:22;;;;;;;1.40;1.40;;;20.00;99.90;;;;;;4934760;29;20465;-68
2022/05/23 06:41:49;;;;;;;1.20;1.10;;;20.40;99.90;;;;;;4938048;28;20552;-68
2022/05/23 06:44:15;;;;;;;1.60;1.50;;;20.50;99.90;;;;;;4944330;29;20524;-68
2022/05/23 06:46:43;;;;;;;1.10;1.10;;;20.70;99.90;;;;;;4937067;29;20528;-69
2022/05/23 06:49:10;;;;;;;1.70;1.47;;;20.70;99.90;;;;;;4936220;29;20469;-68
2022/05/23 06:51:37;;;;;;;1.40;1.40;;;20.80;99.90;;;;;;4934932;29;21026;-69
2022/05/23 06:54:04;;;;;;;1.57;1.37;;;21.40;99.90;;;;;;4935506;29;20529;-68
2022/05/23 06:56:30;;;;;;;2.03;1.80;;;22.00;99.90;;;;;;4935412;29;21045;-69
2022/05/23 06:58:57;;;;;;;1.33;1.33;;;21.50;99.90;;;;;;4935873;29;20957;-68
2022/05/23 07:01:24;;;;;;;2.70;1.37;;;21.30;99.90;;;;;;4934223;29;20529;-68
2022/05/23 07:03:52;;;;;;;1.80;1.80;;;21.40;99.90;;;;;;4935371;29;20541;-68
2022/05/23 07:14:32;;;;;;;1.30;1.30;;;22.00;99.30;;;;;;4946842;29;20212;-69
2022/05/23 07:17:00;;;;;;;1.30;1.30;;;22.20;99.00;;;;;;4937877;28;20465;-69
2022/05/23 07:19:28;;;;;;;2.30;1.90;;;22.40;98.40;;;;;;4935445;29;20935;-69
2022/05/23 07:21:59;;;;;;;1.60;1.60;;;22.30;98.20;;;;;;4929988;29;20482;-69
2022/05/23 07:24:26;;;;;;;2.77;1.57;;;22.50;97.50;;;;;;4933000;29;20546;-68
2022/05/23 07:26:54;;;;;;;1.57;1.57;;;22.50;96.80;;;;;;4934815;29;20529;-69
2022/05/23 07:29:22;;;;;;;2.10;1.40;;;22.80;97.20;;;;;;4935049;29;20548;-69
2022/05/23 07:31:49;;;;;;;1.57;1.50;;;23.00;96.20;;;;;;4933313;29;20496;-69
2022/05/23 07:34:15;;;;;;;1.50;1.20;;;23.10;95.80;;;;;;4935341;29;20466;-68
2022/05/23 07:36:44;;;;;;;1.20;1.10;;;23.20;95.10;;;;;;4934520;29;20528;-69
2022/05/23 07:39:12;;;;;;;1.20;1.20;;;23.40;94.90;;;;;;4934836;29;20954;-69
2022/05/23 07:41:39;;;;;;;1.83;1.70;;;23.40;94.50;;;;;;4934017;29;20509;-69
2022/05/23 07:44:06;;;;;;;1.07;1.07;;;23.20;94.30;;;;;;4934045;29;20485;-68
2022/05/23 07:46:34;;;;;;;1.77;1.77;;;22.50;93.90;;;;;;4934559;29;20470;-69
2022/05/23 07:49:01;;;;;;;1.30;1.30;;;22.20;94.70;;;;;;4939997;28;20879;-68
2022/05/23 07:51:30;;;;;;;1.60;1.60;;;22.00;95.40;;;;;;4933996;29;20867;-68
2022/05/23 08:02:15;;;;;;;1.40;1.40;;;21.30;96.00;;;;;;4933447;29;20476;-67
2022/05/23 08:04:42;;;;;;;1.80;1.70;;;21.30;97.30;;;;;;4934596;29;20462;-68
2022/05/23 08:07:09;;;;;;;2.00;1.73;;;21.50;96.90;;;;;;4934220;29;20508;-68
2022/05/23 08:09:38;;;;;;;1.60;1.60;;;21.80;96.70;;;;;;4933604;29;20888;-68
2022/05/23 08:12:06;;;;;;;2.93;1.73;;;22.00;96.60;;;;;;4933620;29;20496;-68
2022/05/23 08:14:33;;;;;;;4.07;1.70;;;22.30;96.30;;;;;;4947243;29;20464;-68
2022/05/23 08:17:00;;;;;;;1.97;1.90;;;22.40;95.70;;;;;;4948676;28;20541;-68
2022/05/23 08:19:27;;;;;;;1.80;1.80;;;22.70;95.10;;;;;;4934223;29;20816;-68
2022/05/23 08:21:57;;;;;;;1.87;1.63;;;22.80;94.80;;;;;;4933542;29;20490;-69
2022/05/23 08:24:24;;;;;;;1.60;1.50;;;22.80;94.30;;;;;;4934528;29;20466;-68
2022/05/23 08:26:53;;;;;;;1.90;1.90;;;22.60;94.60;;;;;;4934268;29;20472;-68
2022/05/23 08:29:20;;;;;;;2.33;1.90;;;22.70;94.90;;;;;;4934071;29;20565;-68
2022/05/23 08:31:48;;;;;;;2.30;2.20;;;22.50;94.40;;;;;;4932911;29;20498;-69
2022/05/23 08:34:16;;;;;;;2.07;1.97;;;22.10;94.40;;;;;;4934418;29;20465;-68
2022/05/23 08:36:42;;;;;;;2.20;2.00;;;22.00;94.60;;;;;;4933910;29;20971;-67
2022/05/23 08:39:09;;;;;;;1.97;1.87;;;21.80;95.00;;;;;;4934244;29;20836;-69
2022/05/23 08:41:40;;;;;;;2.07;1.97;;;22.00;95.80;;;;;;4932950;29;20486;-68
2022/05/23 08:44:18;;;;;;;2.00;1.90;;;22.10;95.10;;;;;;4927135;29;20551;-68
2022/05/23 08:46:50;;;;;;;2.10;2.10;;;22.00;94.70;;;;;;4931741;29;20519;-68
2022/05/23 08:49:41;;;;;;;2.17;2.07;;;21.90;95.50;;;;;;4939672;29;21032;-68
2022/05/23 08:52:14;;;;;;;2.73;1.70;;;21.80;95.00;;;;;;4943623;29;20495;-68
2022/05/23 08:54:49;;;;;;;2.63;2.53;;;22.00;95.80;;;;;;4943504;28;20814;-68
2022/05/23 08:57:28;;;;;;;2.40;2.40;;;22.10;95.20;;;;;;4946035;29;20484;-68
2022/05/23 09:00:02;;;;;;;2.23;2.13;;;22.00;95.50;;;;;;4940684;28;20512;-68
2022/05/23 09:02:37;;;;;;;2.40;2.30;;;22.00;95.80;;;;;;4941993;29;20505;-66
2022/05/23 09:05:09;;;;;;;2.60;2.47;;;22.10;96.50;;;;;;4942906;28;20472;-66
2022/05/23 09:07:42;;;;;;;1.83;1.80;;;22.20;95.30;;;;;;4935896;29;20524;-67
2022/05/23 09:10:13;;;;;;;2.00;1.90;;;22.00;95.40;;;;;;4939549;29;20477;-67
2022/05/23 09:12:40;;;;;;;2.20;2.10;;;21.80;95.80;;;;;;4936868;29;20493;-67
2022/05/23 09:15:09;;;;;;;2.20;2.03;;;21.70;96.10;;;;;;4943529;28;20986;-66
2022/05/23 09:17:42;;;;;;;2.10;2.10;;;21.60;96.20;;;;;;4940744;29;20460;-66
2022/05/23 09:20:12;;;;;;;2.77;2.57;;;21.50;96.70;;;;;;4939899;29;20497;-67
2022/05/23 09:22:47;;;;;;;5.10;4.83;;;21.60;96.30;;;;;;4936467;29;20465;-67
2022/05/23 09:25:16;;;;;;;2.53;2.53;;;21.70;96.80;;;;;;4931210;29;20461;-68
2022/05/23 09:27:47;;;;;;;2.40;2.20;;;21.70;96.10;;;;;;4944140;29;20465;-68
2022/05/23 09:30:17;;;;;;;2.00;2.00;;;21.70;96.70;;;;;;4940197;28;20468;-67
2022/05/23 09:32:52;;;;;;;2.03;2.03;;;21.80;96.80;;;;;;4927500;29;20492;-67
2022/05/23 09:35:21;;;;;;;6.83;2.20;;;21.90;96.50;;;;;;4933267;29;20560;-67
2022/05/23 09:37:49;;;;;;;2.60;2.50;;;21.90;95.90;;;;;;4944874;28;20500;-68
2022/05/23 09:40:26;;;;;;;2.67;2.47;;;21.70;96.10;;;;;;4945264;28;20457;-68
2022/05/23 09:49:02;;;;;;;2.70;2.50;;;21.80;96.70;;;;;;4944198;29;20462;-68
2022/05/23 09:51:28;;;;;;;2.70;2.60;;;22.00;96.90;;;;;;4948177;28;20865;-67
2022/05/23 09:53:55;;;;;;;2.80;2.60;;;22.10;96.70;;;;;;4948046;28;20539;-67
2022/05/23 09:56:28;;;;;;;2.00;1.90;;;22.00;96.10;;;;;;4941552;29;20513;-68
2022/05/23 09:58:56;;;;;;;2.37;2.27;;;21.80;96.20;;;;;;4940511;29;20479;-66
2022/05/23 10:01:28;;;;;;;2.50;2.47;;;21.60;96.30;;;;;;4940884;29;20568;-69
2022/05/23 10:03:55;;;;;;;2.60;2.43;;;21.70;96.90;;;;;;4935558;29;20552;-67
2022/05/23 10:06:34;;;;;;;2.63;2.43;;;21.90;96.40;;;;;;4934526;29;20967;-67
2022/05/23 10:09:00;;;;;;;2.47;2.47;;;21.90;95.90;;;;;;4942285;28;20950;-67
2022/05/23 10:11:29;;;;;;;2.53;2.33;;;21.90;96.30;;;;;;4932411;29;20861;-68
2022/05/23 10:13:58;;;;;;;2.57;2.43;;;21.90;95.50;;;;;;4937465;29;20468;-67
2022/05/23 10:16:29;;;;;;;2.93;2.70;;;22.00;95.10;;;;;;4929772;29;20496;-67
2022/05/23 10:19:01;;;;;;;2.70;2.57;;;22.00;95.10;;;;;;4933866;29;20894;-67
2022/05/23 10:21:32;;;;;;;2.70;2.60;;;22.20;94.60;;;;;;4947587;29;20656;-67
2022/05/23 10:24:06;;;;;;;2.40;2.30;;;22.50;94.90;;;;;;4935842;29;20520;-67
2022/05/23 10:26:36;;;;;;;2.77;2.63;;;22.40;93.40;;;;;;4939245;29;20469;-68
2022/05/23 10:29:09;;;;;;;3.10;2.70;;;22.20;93.70;;;;;;4933825;29;20549;-68
2022/05/23 10:31:47;;;;;;;2.77;2.67;;;22.10;94.60;;;;;;4940109;29;20631;-67
2022/05/23 10:34:32;;;;;;;2.37;2.27;;;22.20;94.70;;;;;;4946815;29;20515;-67
2022/05/23 10:37:01;;;;;;;2.67;2.47;;;22.40;93.90;;;;;;4958659;23;20470;-69
2022/05/23 10:42:20;;;;;;;2.10;2.00;;;22.10;93.50;;;;;;4970314;28;20555;-70
2022/05/23 10:45:03;;;;;;;2.50;2.33;;;22.00;93.90;;;;;;4974058;28;20472;-68
2022/05/23 10:47:44;;;;;;;2.83;2.63;;;22.10;94.60;;;;;;4967385;28;20491;-71
2022/05/23 10:50:19;;;;;;;4.23;3.47;;;22.00;94.40;;;;;;4960176;28;20468;-69
2022/05/23 10:52:54;;;;;;;3.60;2.30;;;21.90;95.00;;;;;;4937194;29;20528;-70
2022/05/23 10:55:27;;;;;;;2.70;2.60;;;21.80;94.60;;;;;;4941492;28;20524;-67
2022/05/23 10:58:03;;;;;;;3.10;2.90;;;22.00;95.50;;;;;;4959336;28;20492;-67
2022/05/23 11:00:37;;;;;;;2.47;2.20;;;22.20;95.20;;;;;;4968103;28;20511;-67
2022/05/23 11:03:12;;;;;;;2.60;2.60;;;22.10;94.80;;;;;;4935072;29;20880;-68
2022/05/23 11:05:45;;;;;;;2.80;2.60;;;22.20;95.00;;;;;;4935931;29;20469;-67
2022/05/23 11:08:34;;;;;;;2.80;2.70;;;22.30;95.40;;;;;;4935811;29;20549;-67
2022/05/23 11:11:08;;;;;;;2.73;2.50;;;22.40;94.70;;;;;;4934934;29;20469;-67
2022/05/23 11:13:47;;;;;;;3.07;2.60;;;22.50;95.10;;;;;;4935116;29;20493;-67
2022/05/23 11:16:19;;;;;;;3.10;2.90;;;22.50;94.60;;;;;;4935137;29;21007;-67
2022/05/23 11:19:07;;;;;;;3.23;3.23;;;22.50;94.10;;;;;;4949857;29;20496;-67
2022/05/23 11:21:39;;;;;;;2.90;2.70;;;22.60;94.60;;;;;;4953946;28;20453;-67
2022/05/23 11:24:09;;;;;;;2.80;2.60;;;22.80;94.90;;;;;;4954686;28;20842;-67
2022/05/23 11:26:41;;;;;;;2.70;2.60;;;23.00;95.00;;;;;;4954174;28;20885;-68
2022/05/23 11:34:49;;;;;;;2.43;2.33;;;22.90;92.80;;;;;;4946414;29;20460;-69
2022/05/23 11:40:08;;;;;;;2.80;2.70;;;23.10;93.20;;;;;;4953812;29;20572;-69
2022/05/23 11:42:42;;;;;;;2.87;2.43;;;23.00;93.00;;;;;;4954035;28;20563;-69
2022/05/23 11:48:34;;;;;;;2.33;2.20;;;23.20;93.00;;;;;;4958498;28;20525;-69
2022/05/23 11:51:15;;;;;;;3.30;3.10;;;23.20;92.20;;;;;;4961470;28;20554;-69
2022/05/23 11:53:46;;;;;;;2.97;2.87;;;23.40;92.70;;;;;;4973256;28;20514;-68
2022/05/23 11:56:33;;;;;;;4.67;1.87;;;23.90;92.80;;;;;;4973487;28;20468;-69
2022/05/23 11:59:00;;;;;;;2.17;2.17;;;24.00;92.10;;;;;;4973007;28;20549;-69
2022/05/23 12:01:30;;;;;;;2.93;2.83;;;24.10;91.70;;;;;;4962408;28;20500;-70
2022/05/23 12:04:19;;;;;;;2.73;2.63;;;23.90;91.40;;;;;;4953704;28;20461;-68
2022/05/23 12:06:47;;;;;;;3.73;3.53;;;23.80;90.90;;;;;;4954195;28;20527;-69
2022/05/23 12:09:30;;;;;;;4.40;2.87;;;23.50;90.80;;;;;;4953607;28;20966;-69
2022/05/23 12:12:46;;;;;;;3.13;2.80;;;23.30;91.50;;;;;;4954040;28;20476;-70
2022/05/23 12:15:47;;;;;;;2.60;2.50;;;23.40;92.10;;;;;;4953507;28;20470;-70
2022/05/23 12:18:38;;;;;;;2.33;2.30;;;23.50;92.40;;;;;;4953053;28;20489;-70
2022/05/23 12:21:07;;;;;;;3.00;2.50;;;23.60;92.90;;;;;;4953124;28;20461;-69
2022/05/23 12:23:39;;;;;;;2.20;2.13;;;23.60;92.80;;;;;;4953449;28;20572;-70
2022/05/23 12:26:20;;;;;;;2.33;2.30;;;23.70;92.60;;;;;;4953667;28;20469;-69
2022/05/23 12:28:49;;;;;;;3.30;3.03;;;23.70;92.60;;;;;;4953388;28;20860;-69
2022/05/23 12:31:18;;;;;;;2.00;2.00;;;23.50;93.00;;;;;;4952357;28;20465;-70
2022/05/23 12:33:51;;;;;;;2.80;2.53;;;23.50;92.90;;;;;;4952628;28;20579;-69
2022/05/23 12:36:22;;;;;;;2.57;2.37;;;23.50;92.70;;;;;;4953171;28;20468;-69
2022/05/23 12:39:20;;;;;;;2.20;2.07;;;23.70;92.60;;;;;;4952820;28;20551;-69
2022/05/23 12:41:54;;;;;;;2.00;1.90;;;23.60;92.80;;;;;;4945585;28;20896;-69
2022/05/23 12:45:04;;;;;;;2.83;2.80;;;23.60;92.60;;;;;;4953155;28;20573;-69
2022/05/23 12:47:58;;;;;;;2.73;2.60;;;23.60;92.90;;;;;;4952428;28;20988;-69
2022/05/23 12:50:33;;;;;;;3.33;3.10;;;23.60;93.10;;;;;;4932123;28;20802;-69
2022/05/23 12:53:35;;;;;;;1.97;1.90;;;23.60;93.20;;;;;;4956781;28;20484;-68
2022/05/23 12:56:27;;;;;;;2.30;2.20;;;23.70;93.10;;;;;;4933388;29;20462;-69
2022/05/23 12:59:43;;;;;;;2.43;2.23;;;23.80;92.90;;;;;;4933984;29;20488;-68
2022/05/23 13:02:16;;;;;;;1.77;1.77;;;23.70;93.10;;;;;;4947281;28;20519;-69
2022/05/23 13:04:50;;;;;;;1.90;1.90;;;23.70;92.40;;;;;;4952541;28;20472;-69
2022/05/23 13:07:22;;;;;;;2.67;2.57;;;23.60;92.50;;;;;;4951934;28;20476;-69
2022/05/23 13:09:55;;;;;;;1.87;1.87;;;23.60;92.40;;;;;;4952115;28;20550;-68
2022/05/23 13:12:28;;;;;;;2.60;2.50;;;23.50;92.30;;;;;;4952574;28;20937;-69
2022/05/23 13:14:57;;;;;;;3.20;2.90;;;23.60;92.20;;;;;;4952893;28;20464;-70
2022/05/23 13:17:35;;;;;;;2.40;2.40;;;23.40;92.20;;;;;;4951751;28;20488;-67
2022/05/23 13:22:47;;;;;;;2.73;2.37;;;23.50;92.60;;;;;;4952259;29;20515;-69
2022/05/23 13:25:14;;;;;;;1.90;1.90;;;23.60;93.00;;;;;;4952731;28;20491;-68
2022/05/23 13:27:49;;;;;;;3.50;2.70;;;23.60;92.20;;;;;;4951964;28;20495;-69
2022/05/23 13:30:27;;;;;;;3.90;3.70;;;23.70;92.60;;;;;;4959117;28;20698;-70
2022/05/23 13:33:07;;;;;;;2.93;2.40;;;23.70;92.00;;;;;;4940487;28;20902;-69
2022/05/23 13:35:34;;;;;;;2.40;2.30;;;23.60;92.10;;;;;;4962800;28;20991;-69
2022/05/23 13:38:17;;;;;;;2.80;2.70;;;23.80;92.80;;;;;;4950347;28;21255;-69
2022/05/23 13:40:46;;;;;;;3.60;3.07;;;23.90;92.50;;;;;;4943075;29;20555;-69
2022/05/23 13:43:19;;;;;;;3.60;2.93;;;23.70;92.20;;;;;;4949050;28;20565;-69
2022/05/23 13:45:49;;;;;;;2.20;2.20;;;23.70;92.50;;;;;;4957308;28;20472;-69
2022/05/23 13:48:21;;;;;;;2.57;2.50;;;23.70;92.60;;;;;;4951853;28;20488;-69
2022/05/23 13:50:53;;;;;;;3.10;2.67;;;23.60;92.60;;;;;;4943771;28;20472;-68
2022/05/23 13:53:25;;;;;;;1.97;1.97;;;23.40;92.30;;;;;;4950106;28;20495;-69
2022/05/23 13:55:52;;;;;;;2.90;2.80;;;23.40;92.80;;;;;;4958934;28;20501;-69
2022/05/23 13:58:24;;;;;;;2.97;2.87;;;23.40;93.00;;;;;;4950984;28;20492;-69
2022/05/23 14:00:55;;;;;;;2.60;2.50;;;23.40;93.00;;;;;;4962531;28;20472;-68
2022/05/23 14:03:27;;;;;;;1.80;1.70;;;23.40;92.90;;;;;;4959901;28;20480;-68
2022/05/23 14:05:56;;;;;;;1.30;1.30;;;23.30;92.20;;;;;;4960797;28;20800;-68
2022/05/23 14:08:33;;;;;;;1.90;1.90;;;23.30;92.30;;;;;;4957525;28;20487;-73
2022/05/23 14:11:02;;;;;;;2.50;2.40;;;23.50;92.40;;;;;;4945357;28;20950;-69
2022/05/23 14:13:32;;;;;;;3.03;2.83;;;23.60;92.70;;;;;;4957625;28;20492;-68
2022/05/23 14:15:59;;;;;;;2.93;2.70;;;23.70;92.50;;;;;;4953591;28;20469;-69
2022/05/23 14:18:31;;;;;;;1.73;1.73;;;23.90;92.80;;;;;;4942252;28;20515;-70
2022/05/23 14:20:58;;;;;;;2.90;2.80;;;23.90;91.80;;;;;;4962777;28;21175;-68
2022/05/23 14:23:29;;;;;;;2.87;2.60;;;23.90;92.30;;;;;;4952276;28;21036;-69
2022/05/23 14:26:20;;;;;;;3.07;2.87;;;24.00;92.90;;;;;;4963393;28;20464;-69
2022/05/23 14:28:54;;;;;;;2.83;2.30;;;24.10;92.50;;;;;;4962984;28;20790;-70
2022/05/23 14:31:35;;;;;;;2.37;2.27;;;24.30;92.10;;;;;;4963842;28;20648;-68
2022/05/23 14:34:07;;;;;;;2.30;2.10;;;24.30;92.00;;;;;;4960845;28;20494;-68
2022/05/23 14:36:34;;;;;;;2.50;2.50;;;24.20;91.70;;;;;;4962705;28;20476;-69
2022/05/23 14:39:04;;;;;;;1.93;1.93;;;24.30;91.90;;;;;;4969162;28;20888;-69
2022/05/23 14:41:32;;;;;;;2.90;2.80;;;24.30;92.00;;;;;;4962768;28;20614;-69
2022/05/23 14:44:04;;;;;;;3.57;3.37;;;24.30;92.20;;;;;;4968910;28;20562;-69
2022/05/23 14:46:33;;;;;;;2.23;2.13;;;24.40;91.90;;;;;;4960225;28;20478;-69
2022/05/23 14:49:02;;;;;;;2.13;2.13;;;24.30;91.70;;;;;;4955387;28;20484;-69
2022/05/23 14:51:32;;;;;;;2.40;2.40;;;24.10;92.20;;;;;;4957684;28;20472;-69
2022/05/23 14:56:51;;;;;;;2.50;2.40;;;24.00;92.20;;;;;;4939416;28;20458;-68
2022/05/23 15:02:18;;;;;;;3.00;2.70;;;24.10;91.70;;;;;;4956012;28;20528;-70
2022/05/23 15:04:46;;;;;;;3.90;2.63;;;24.10;92.30;;;;;;4942759;28;20464;-68
2022/05/23 15:07:16;;;;;;;2.20;2.10;;;24.10;92.10;;;;;;4949344;29;20540;-69
2022/05/23 15:09:42;;;;;;;2.47;2.47;;;24.10;91.80;;;;;;4952539;28;20535;-69
2022/05/23 15:12:20;;;;;;;2.60;2.50;;;24.10;92.40;;;;;;4958951;28;20741;-70
2022/05/23 15:14:49;;;;;;;2.50;2.40;;;24.20;92.00;;;;;;4960802;28;20488;-69
2022/05/23 15:17:19;;;;;;;2.47;2.27;;;24.30;92.00;;;;;;4946870;28;20516;-70
2022/05/23 15:19:46;;;;;;;2.60;2.60;;;24.30;92.00;;;;;;4949374;28;20461;-69
2022/05/23 15:22:17;;;;;;;6.17;2.50;;;24.30;91.90;;;;;;4937332;28;20503;-70
2022/05/23 15:24:44;;;;;;;2.13;2.13;;;24.30;92.40;;;;;;4948982;28;20551;-70
2022/05/23 15:27:12;;;;;;;3.13;3.03;;;24.30;92.00;;;;;;4957132;28;20480;-70
2022/05/23 15:29:39;;;;;;;2.67;2.57;;;24.50;92.50;;;;;;4954871;28;20483;-69
2022/05/23 15:32:08;;;;;;;2.47;2.47;;;24.40;91.80;;;;;;4955300;28;20521;-70
2022/05/23 15:34:35;;;;;;;2.93;2.83;;;24.30;92.20;;;;;;4948528;28;20896;-69
2022/05/23 15:37:02;;;;;;;3.00;2.90;;;24.30;92.20;;;;;;4950441;28;20559;-69
2022/05/23 15:39:29;;;;;;;3.80;2.60;;;24.30;92.30;;;;;;4955708;28;20468;-68
2022/05/23 15:41:56;;;;;;;2.37;2.27;;;24.30;92.40;;;;;;4956825;28;20515;-69
2022/05/23 15:44:33;;;;;;;3.00;2.80;;;24.40;92.50;;;;;;4957711;28;20453;-70
2022/05/23 15:47:01;;;;;;;2.60;2.50;;;24.40;92.30;;;;;;4956854;28;20852;-70
2022/05/23 15:49:29;;;;;;;3.20;3.10;;;24.50;92.50;;;;;;4954209;28;20495;-69
2022/05/23 15:51:55;;;;;;;2.33;2.33;;;24.60;92.90;;;;;;4960970;28;20863;-69
2022/05/23 15:54:22;;;;;;;2.80;2.80;;;24.60;92.40;;;;;;4952989;28;20476;-69
2022/05/23 15:56:49;;;;;;;3.53;3.23;;;24.60;92.50;;;;;;4965245;28;20467;-69
2022/05/23 15:59:20;;;;;;;4.10;2.23;;;24.70;92.70;;;;;;4956716;28;20886;-70
2022/05/23 16:01:47;;;;;;;3.40;2.90;;;24.60;92.00;;;;;;4958896;28;21048;-70
2022/05/23 16:04:15;;;;;;;3.37;3.10;;;24.50;92.40;;;;;;4966230;28;20473;-69
2022/05/23 16:06:43;;;;;;;3.17;3.07;;;24.40;92.50;;;;;;4959581;28;20530;-68
2022/05/23 16:09:10;;;;;;;2.47;2.33;;;24.40;92.60;;;;;;4962388;28;20472;-69
2022/05/23 16:11:42;;;;;;;3.10;3.00;;;24.40;92.60;;;;;;4956234;28;20464;-69
2022/05/23 16:14:12;;;;;;;3.00;3.00;;;24.40;92.80;;;;;;4952465;28;20492;-70
2022/05/23 16:16:41;;;;;;;2.87;2.67;;;24.40;92.70;;;;;;4970948;28;20463;-68
2022/05/23 16:19:08;;;;;;;2.77;2.67;;;24.40;92.70;;;;;;4956547;28;20931;-68
2022/05/23 16:21:35;;;;;;;3.63;3.40;;;24.40;92.50;;;;;;4958263;28;21018;-69
2022/05/23 16:24:05;;;;;;;2.90;2.80;;;24.30;92.90;;;;;;4960569;28;20475;-69
2022/05/23 16:26:33;;;;;;;3.53;3.27;;;24.30;92.90;;;;;;4964681;28;20467;-69
2022/05/23 16:28:59;;;;;;;2.60;2.60;;;24.30;92.80;;;;;;4959633;28;20487;-69
2022/05/23 16:31:26;;;;;;;2.57;2.47;;;24.30;92.40;;;;;;4969315;28;20482;-68
2022/05/23 16:36:38;;;;;;;1.80;1.70;;;24.20;91.40;;;;;;4958530;28;20435;-69
2022/05/23 16:39:08;;;;;;;2.40;2.30;;;24.20;91.40;;;;;;4952751;28;20839;-69
2022/05/23 16:41:35;;;;;;;2.90;2.80;;;24.10;91.60;;;;;;4953448;28;20463;-69
2022/05/23 16:44:03;;;;;;;3.30;3.20;;;24.10;91.50;;;;;;4951169;28;20465;-70
2022/05/23 16:46:30;;;;;;;4.47;3.07;;;24.20;91.80;;;;;;4960810;28;20463;-70
2022/05/23 16:48:57;;;;;;;2.50;2.30;;;24.10;91.90;;;;;;4947783;28;20998;-69
2022/05/23 16:51:25;;;;;;;5.50;2.50;;;24.10;92.00;;;;;;4941656;28;20466;-68
2022/05/23 16:53:52;;;;;;;2.50;2.40;;;24.20;91.70;;;;;;4956020;28;20484;-70
2022/05/23 16:56:21;;;;;;;2.80;2.70;;;24.20;91.70;;;;;;4960447;28;20468;-70
2022/05/23 16:58:48;;;;;;;2.47;2.37;;;24.20;91.70;;;;;;4955292;28;20523;-70
2022/05/23 17:01:17;;;;;;;2.60;2.60;;;24.10;91.70;;;;;;4988297;23;20495;-68
2022/05/23 17:03:44;;;;;;;2.70;2.50;;;24.10;91.80;;;;;;4986645;28;20937;-69
2022/05/23 17:06:10;;;;;;;2.70;2.70;;;24.10;92.00;;;;;;4994718;28;20459;-68
2022/05/23 17:08:38;;;;;;;2.57;2.47;;;24.10;92.10;;;;;;5002931;28;20462;-69
2022/05/23 17:11:05;;;;;;;3.10;3.00;;;24.00;91.70;;;;;;4982375;28;20991;-68
2022/05/23 17:13:34;;;;;;;2.73;2.60;;;24.00;91.90;;;;;;4970801;28;20472;-68
2022/05/23 17:16:00;;;;;;;2.33;2.33;;;23.90;91.40;;;;;;4970814;28;20491;-68
2022/05/23 17:18:28;;;;;;;3.00;2.80;;;23.80;91.50;;;;;;4971430;28;20471;-69
2022/05/23 17:20:55;;;;;;;2.97;2.97;;;23.80;91.70;;;;;;4966675;28;20485;-68
2022/05/23 17:23:22;;;;;;;2.53;2.43;;;23.80;91.80;;;;;;4982795;28;20521;-69
2022/05/23 17:25:49;;;;;;;2.57;2.47;;;23.80;92.30;;;;;;4978065;28;21006;-68
2022/05/23 17:28:17;;;;;;;2.50;2.50;;;23.80;91.90;;;;;;4977147;28;20480;-68
2022/05/23 17:30:47;;;;;;;3.13;2.93;;;23.70;92.10;;;;;;4969937;28;20490;-68
2022/05/23 17:33:15;;;;;;;3.03;2.90;;;23.70;92.30;;;;;;4978181;28;20860;-68
2022/05/23 17:35:42;;;;;;;3.57;3.20;;;23.60;92.40;;;;;;4970628;28;20499;-69
2022/05/23 17:38:09;;;;;;;2.97;2.87;;;23.60;92.50;;;;;;4980110;28;20478;-68
2022/05/23 17:40:36;;;;;;;2.90;2.80;;;23.60;92.60;;;;;;4971454;28;20550;-68
2022/05/23 17:43:03;;;;;;;2.63;2.53;;;23.50;92.60;;;;;;4978557;28;21027;-68
2022/05/23 17:45:30;;;;;;;3.00;2.90;;;23.50;92.70;;;;;;4970451;28;20472;-68
2022/05/23 17:47:59;;;;;;;3.53;3.23;;;23.50;92.70;;;;;;4973274;28;20471;-68
2022/05/23 17:50:25;;;;;;;2.70;2.70;;;23.50;92.90;;;;;;4967997;28;20516;-68
2022/05/23 17:52:52;;;;;;;3.20;3.10;;;23.40;93.00;;;;;;4978940;28;20468;-68
2022/05/23 17:55:21;;;;;;;2.43;2.33;;;23.40;93.00;;;;;;4980148;28;20901;-68
2022/05/23 17:57:50;;;;;;;3.00;2.80;;;23.30;92.90;;;;;;4971947;28;20463;-68
2022/05/23 18:00:19;;;;;;;3.50;3.20;;;23.30;93.00;;;;;;4968045;28;21029;-68
2022/05/23 18:02:46;;;;;;;2.90;2.80;;;23.20;93.10;;;;;;4977740;28;20455;-68
2022/05/23 18:05:15;;;;;;;3.43;3.20;;;23.20;93.20;;;;;;4976124;28;20519;-68
2022/05/23 18:07:43;;;;;;;3.20;3.10;;;23.20;93.30;;;;;;4981139;28;20559;-68